This is the latest recevied weather packets stored in our database for station/object WE8M. If no packets are shown the sender has not sent any weather packets the latest 10 day(s).
| Time | Temp. | Humidity | Pressure | Rain* | Wind** | Luminosity | Snow |
|---|---|---|---|---|---|---|---|
| 1777613337 | 6.11° C | 80% | 1015.1 hPa | 0 mm | - | - | - |
| 1777613034 | 6.67° C | 78% | 1014.9 hPa | 0 mm | - | - | - |
| 1777612730 | 6.67° C | 76% | 1015 hPa | 0 mm | - | - | - |
| 1777612426 | 6.67° C | 75% | 1014.8 hPa | 0 mm | - | - | - |
| 1777612121 | 6.67° C | 76% | 1015 hPa | 0 mm | - | - | - |
| 1777611817 | 6.67° C | 76% | 1015.1 hPa | 0 mm | - | - | - |
| 1777611513 | 6.11° C | 80% | 1014.9 hPa | 0 mm | - | - | - |
| 1777611210 | 6.11° C | 80% | 1015 hPa | 0 mm | - | - | - |
| 1777610906 | 5.56° C | 84% | 1015.1 hPa | 0 mm | - | - | - |
| 1777610601 | 4.44° C | 94% | 1015.2 hPa | 0 mm | - | - | - |
| 1777610300 | 4.44° C | 93% | 1015.4 hPa | 0 mm | - | - | - |
| 1777609998 | 4.44° C | 93% | 1015.4 hPa | 0 mm | - | - | - |
| 1777609694 | 4.44° C | 93% | 1015.6 hPa | 0 mm | - | - | - |
| 1777609391 | 4.44° C | 92% | 1015.9 hPa | 0 mm | - | - | - |
| 1777609089 | 4.44° C | 92% | 1015.6 hPa | 0 mm | - | - | - |
| 1777608786 | 4.44° C | 91% | 1015.7 hPa | 0 mm | - | - | - |
| 1777608482 | 4.44° C | 90% | 1015.7 hPa | 0 mm | - | - | - |
| 1777608181 | 4.44° C | 89% | 1015.7 hPa | 0 mm | - | - | - |
| 1777607877 | 5° C | 89% | 1015.6 hPa | 0 mm | - | - | - |
| 1777607573 | 5° C | 88% | 1015.6 hPa | 0 mm | - | - | - |
| 1777607269 | 5.56° C | 87% | 1015.9 hPa | 0 mm | - | - | - |
| 1777606965 | 5.56° C | 85% | 1015.9 hPa | 0 mm | - | - | - |
| 1777606662 | 6.11° C | 84% | 1015.9 hPa | 0 mm | - | - | - |
| 1777606357 | 6.11° C | 80% | 1016 hPa | 0 mm | - | - | - |
| 1777606058 | 6.67° C | 79% | 1016 hPa | 0 mm | - | - | - |
* Rain latest hour (hover to see other rain measurements)
** Current wind speed in m/s (hover to see current wind gust speed)